Time;durP1;ratioP1;P1;durP2;ratioP2;P2;SDS_P1;SDS_P2;PMS_P1;PMS_P2;Temp;Humidity;BMP_temperature;BMP_pressure;BME280_temperature;BME280_humidity;BME280_pressure;Samples;Min_cycle;Max_cycle;Signal;HPM_P1;HPM_P2
2021/07/08 00:01:55;;;;;;;5.93;3.55;;;18.40;85.10;;;;;;5042839;28;20120;-77
2021/07/08 00:04:21;;;;;;;7.05;4.07;;;18.40;85.30;;;;;;5042954;28;20499;-77
2021/07/08 00:06:47;;;;;;;9.48;3.92;;;18.40;85.40;;;;;;5043159;28;20436;-77
2021/07/08 00:09:13;;;;;;;7.82;4.03;;;18.40;85.50;;;;;;5027830;28;20033;-77
2021/07/08 00:11:39;;;;;;;5.65;3.88;;;18.40;85.70;;;;;;5042869;28;20110;-77
2021/07/08 00:14:06;;;;;;;6.28;4.32;;;18.30;85.80;;;;;;5026489;28;20069;-79
2021/07/08 00:16:32;;;;;;;5.10;3.95;;;18.30;85.90;;;;;;5027442;28;20025;-78
2021/07/08 00:18:59;;;;;;;7.60;4.25;;;18.40;86.10;;;;;;5026075;28;20176;-77
2021/07/08 00:21:25;;;;;;;5.85;3.80;;;18.30;86.30;;;;;;5026151;28;20030;-79
2021/07/08 00:23:51;;;;;;;7.88;4.25;;;18.30;86.40;;;;;;5026159;28;20032;-78
2021/07/08 00:26:17;;;;;;;7.22;3.80;;;18.30;86.50;;;;;;5026095;28;20040;-78
2021/07/08 00:28:44;;;;;;;5.53;3.35;;;18.30;86.70;;;;;;5026374;28;20028;-78
2021/07/08 00:31:10;;;;;;;7.43;4.50;;;18.30;87.00;;;;;;5042511;28;20050;-77
2021/07/08 00:33:37;;;;;;;8.75;4.13;;;18.30;87.20;;;;;;5042561;28;20049;-76
2021/07/08 00:36:03;;;;;;;7.03;4.07;;;18.30;87.30;;;;;;5042507;28;20021;-79
2021/07/08 00:38:29;;;;;;;7.53;4.10;;;18.20;87.40;;;;;;5044083;28;20056;-78
2021/07/08 00:40:55;;;;;;;7.53;3.90;;;18.30;87.70;;;;;;5031161;28;20061;-79
2021/07/08 00:43:20;;;;;;;8.30;4.53;;;18.20;87.70;;;;;;5029614;28;20045;-78
2021/07/08 00:45:46;;;;;;;7.05;4.43;;;18.20;87.80;;;;;;5029900;28;20026;-77
2021/07/08 00:48:12;;;;;;;6.38;3.67;;;18.20;87.90;;;;;;5029862;28;20025;-76
2021/07/08 00:50:46;;;;;;;9.02;4.32;;;18.20;88.10;;;;;;5046265;28;20034;-76
2021/07/08 00:53:16;;;;;;;6.45;4.43;;;18.20;88.30;;;;;;5046491;28;20399;-79
2021/07/08 00:55:43;;;;;;;8.52;4.68;;;18.20;88.30;;;;;;5030947;28;20105;-77
2021/07/08 00:58:10;;;;;;;9.60;4.22;;;18.20;88.40;;;;;;5046190;28;20389;-76
2021/07/08 01:00:37;;;;;;;8.73;4.28;;;18.20;88.50;;;;;;5029473;28;20053;-77
2021/07/08 01:03:08;;;;;;;8.82;4.35;;;18.10;88.60;;;;;;5029638;28;20032;-79
2021/07/08 01:05:37;;;;;;;8.95;4.70;;;18.10;88.70;;;;;;5046260;28;20373;-78
2021/07/08 01:08:08;;;;;;;8.30;4.20;;;18.00;89.00;;;;;;5030747;28;20029;-79
2021/07/08 01:10:33;;;;;;;7.28;4.45;;;18.00;89.10;;;;;;5029890;28;20022;-77
2021/07/08 01:13:00;;;;;;;8.85;4.50;;;18.00;89.20;;;;;;5030603;28;20546;-79
2021/07/08 01:15:26;;;;;;;8.13;4.75;;;17.90;89.40;;;;;;5029273;28;20029;-78
2021/07/08 01:17:52;;;;;;;9.10;4.15;;;17.90;89.80;;;;;;5030580;28;20032;-79
2021/07/08 01:20:20;;;;;;;7.68;4.03;;;17.90;90.00;;;;;;5029147;28;20396;-80
2021/07/08 01:22:49;;;;;;;11.48;4.30;;;17.90;90.00;;;;;;5030589;28;20035;-80
2021/07/08 01:25:18;;;;;;;8.37;4.90;;;17.90;90.10;;;;;;5030539;28;20085;-79
2021/07/08 01:27:44;;;;;;;8.97;5.20;;;17.90;90.20;;;;;;5029145;28;20026;-78
2021/07/08 01:30:12;;;;;;;12.88;5.18;;;17.90;90.20;;;;;;5045710;28;20105;-79
2021/07/08 01:32:38;;;;;;;8.35;4.20;;;18.00;90.30;;;;;;5045620;28;20029;-79
2021/07/08 01:35:06;;;;;;;9.68;4.85;;;18.00;90.40;;;;;;5029091;28;20040;-77
2021/07/08 01:37:32;;;;;;;8.18;4.53;;;18.00;90.50;;;;;;5045460;28;20396;-79
2021/07/08 01:40:00;;;;;;;10.50;5.50;;;18.00;90.50;;;;;;5028841;28;20033;-77
2021/07/08 01:42:29;;;;;;;10.45;5.38;;;18.00;90.60;;;;;;5028837;28;20116;-78
2021/07/08 01:44:56;;;;;;;9.63;5.15;;;18.00;90.60;;;;;;5029952;28;20022;-80
2021/07/08 01:47:22;;;;;;;9.00;5.55;;;18.00;90.60;;;;;;5028681;28;20072;-77
2021/07/08 01:49:48;;;;;;;8.25;4.88;;;18.00;90.70;;;;;;5028653;28;20071;-79
2021/07/08 01:52:14;;;;;;;10.25;5.00;;;18.00;90.70;;;;;;5028707;28;20053;-79
2021/07/08 01:54:39;;;;;;;8.43;4.85;;;18.00;90.80;;;;;;5029828;28;20058;-80
2021/07/08 01:57:05;;;;;;;11.35;5.70;;;18.00;90.90;;;;;;5028796;28;20040;-77
2021/07/08 01:59:31;;;;;;;11.95;5.38;;;18.10;90.90;;;;;;5028440;28;20025;-80
2021/07/08 02:01:57;;;;;;;14.88;5.75;;;18.00;91.00;;;;;;5028341;28;20069;-77
2021/07/08 02:04:22;;;;;;;9.70;5.45;;;18.00;91.00;;;;;;5028446;28;20026;-79
2021/07/08 02:06:48;;;;;;;12.57;5.85;;;18.00;91.00;;;;;;5028541;28;20048;-79
2021/07/08 02:09:14;;;;;;;11.00;5.35;;;18.00;91.00;;;;;;5028497;28;20037;-76
2021/07/08 02:11:40;;;;;;;9.60;5.20;;;18.10;91.10;;;;;;5029963;28;20033;-81
2021/07/08 02:14:06;;;;;;;9.57;5.57;;;18.00;91.10;;;;;;5028246;28;20029;-78
2021/07/08 02:16:34;;;;;;;9.05;5.25;;;18.00;91.10;;;;;;5029686;28;20029;-78
2021/07/08 02:19:00;;;;;;;10.90;6.20;;;18.10;91.20;;;;;;5029187;28;20056;-79
2021/07/08 02:21:26;;;;;;;14.27;6.95;;;18.10;91.20;;;;;;5028175;28;20037;-78
2021/07/08 02:23:52;;;;;;;10.60;6.07;;;18.00;91.20;;;;;;5028001;28;20032;-79
2021/07/08 02:26:17;;;;;;;11.88;5.50;;;18.00;91.30;;;;;;5029257;28;20025;-80
2021/07/08 02:28:43;;;;;;;14.80;5.70;;;18.00;91.40;;;;;;5044426;28;20025;-79
2021/07/08 02:31:10;;;;;;;10.95;6.00;;;18.00;91.50;;;;;;5044516;28;20042;-79
2021/07/08 02:33:36;;;;;;;10.88;6.43;;;18.00;91.50;;;;;;5044503;28;20447;-78
2021/07/08 02:36:03;;;;;;;12.98;6.10;;;18.00;91.60;;;;;;5028053;28;20032;-79
2021/07/08 02:38:29;;;;;;;10.40;6.35;;;17.90;91.60;;;;;;5029063;28;20108;-79
2021/07/08 02:40:55;;;;;;;16.00;5.97;;;17.90;91.70;;;;;;5027772;28;20113;-78
2021/07/08 02:43:21;;;;;;;14.25;6.30;;;17.80;91.70;;;;;;5028840;28;20105;-80
2021/07/08 02:45:47;;;;;;;9.15;5.70;;;17.80;91.80;;;;;;5028908;28;20076;-78
2021/07/08 02:48:17;;;;;;;9.10;5.78;;;17.80;92.20;;;;;;5028972;28;20057;-78
2021/07/08 02:50:45;;;;;;;13.13;6.47;;;17.80;92.00;;;;;;5044301;28;20025;-78
2021/07/08 02:53:12;;;;;;;12.32;5.53;;;17.80;92.10;;;;;;5027536;28;20036;-78
2021/07/08 02:55:39;;;;;;;11.52;5.82;;;17.70;92.10;;;;;;5027768;28;20029;-80
2021/07/08 02:58:05;;;;;;;14.95;6.28;;;17.70;92.20;;;;;;5027378;28;20071;-81
2021/07/08 03:00:31;;;;;;;10.95;6.07;;;17.70;92.30;;;;;;5026874;28;20039;-79
2021/07/08 03:02:57;;;;;;;13.32;6.70;;;17.70;92.40;;;;;;5044030;28;20411;-78
2021/07/08 03:05:23;;;;;;;11.27;6.05;;;17.70;92.40;;;;;;5043880;28;20114;-79
2021/07/08 03:07:49;;;;;;;12.30;6.80;;;17.70;92.50;;;;;;5043865;28;20040;-79
2021/07/08 03:10:18;;;;;;;13.27;6.28;;;17.70;92.50;;;;;;5043805;28;20366;-78
2021/07/08 03:12:44;;;;;;;13.00;5.90;;;17.70;92.60;;;;;;5027217;28;20507;-80
2021/07/08 03:15:11;;;;;;;10.65;5.47;;;17.70;92.60;;;;;;5043681;28;20140;-78
2021/07/08 03:17:38;;;;;;;16.95;6.40;;;17.70;92.70;;;;;;5027245;28;20263;-79
2021/07/08 03:20:12;;;;;;;11.30;5.97;;;17.70;92.70;;;;;;5043535;28;20060;-77
2021/07/08 03:22:42;;;;;;;13.93;5.95;;;17.60;92.80;;;;;;5027006;28;20033;-80
2021/07/08 03:25:09;;;;;;;14.23;6.20;;;17.60;92.80;;;;;;5026945;28;20105;-79
2021/07/08 03:27:35;;;;;;;15.30;6.93;;;17.60;92.80;;;;;;5043502;28;20036;-78
2021/07/08 03:30:01;;;;;;;13.40;5.75;;;17.60;92.90;;;;;;5028041;28;20029;-78
2021/07/08 03:32:27;;;;;;;12.70;7.07;;;17.60;92.90;;;;;;5028128;28;20147;-79
2021/07/08 03:34:53;;;;;;;14.75;6.43;;;17.60;92.90;;;;;;5028173;28;20116;-79
2021/07/08 03:37:18;;;;;;;11.93;6.03;;;17.60;92.90;;;;;;5027968;28;20037;-78
2021/07/08 03:39:44;;;;;;;12.43;6.38;;;17.60;92.90;;;;;;5026726;28;20044;-77
2021/07/08 03:42:10;;;;;;;14.95;6.50;;;17.60;93.00;;;;;;5026736;28;20025;-77
2021/07/08 03:44:35;;;;;;;13.07;6.70;;;17.60;93.00;;;;;;5026776;28;20100;-77
2021/07/08 03:47:01;;;;;;;11.25;6.45;;;17.60;93.00;;;;;;5026608;28;20132;-79
2021/07/08 03:49:27;;;;;;;13.13;6.43;;;17.60;93.10;;;;;;5026547;28;20026;-77
2021/07/08 03:51:52;;;;;;;12.35;6.53;;;17.60;93.30;;;;;;5027832;28;20026;-77
2021/07/08 03:54:18;;;;;;;13.25;6.63;;;17.60;93.10;;;;;;5026317;28;20095;-78
2021/07/08 03:56:44;;;;;;;13.80;7.15;;;17.60;93.10;;;;;;5026417;28;20156;-80
2021/07/08 03:59:09;;;;;;;14.95;6.82;;;17.60;93.20;;;;;;5026286;28;20032;-78
2021/07/08 04:01:35;;;;;;;15.85;7.13;;;17.60;93.30;;;;;;5026088;28;20040;-77
2021/07/08 04:04:01;;;;;;;11.77;6.57;;;17.60;93.20;;;;;;5026491;28;20033;-78
2021/07/08 04:06:26;;;;;;;14.23;6.07;;;17.60;93.20;;;;;;5027660;28;20029;-78
2021/07/08 04:08:52;;;;;;;17.67;7.75;;;17.60;93.20;;;;;;5042921;28;20053;-80
2021/07/08 04:11:18;;;;;;;12.27;6.88;;;17.60;93.20;;;;;;5026399;28;20033;-77
2021/07/08 04:13:43;;;;;;;14.48;7.45;;;17.60;93.30;;;;;;5029728;28;20353;-79
2021/07/08 04:16:09;;;;;;;14.25;7.45;;;17.60;93.30;;;;;;5030635;28;20090;-79
2021/07/08 04:18:35;;;;;;;14.73;7.70;;;17.60;93.30;;;;;;5030324;28;20029;-78
2021/07/08 04:21:01;;;;;;;11.90;6.30;;;17.60;93.30;;;;;;5030275;28;20056;-79
2021/07/08 04:23:26;;;;;;;11.80;6.47;;;17.70;93.40;;;;;;5030293;28;20065;-77
2021/07/08 04:25:52;;;;;;;17.70;8.15;;;17.70;93.30;;;;;;5046817;28;20030;-79
2021/07/08 04:28:18;;;;;;;13.93;7.80;;;17.70;93.30;;;;;;5046758;28;20068;-77
2021/07/08 04:30:44;;;;;;;11.82;7.50;;;17.70;93.40;;;;;;5030313;28;20448;-78
2021/07/08 04:33:10;;;;;;;14.23;6.93;;;17.70;93.40;;;;;;5030171;28;20033;-78
2021/07/08 04:35:38;;;;;;;13.93;7.97;;;17.70;93.40;;;;;;5030128;28;20030;-79
2021/07/08 04:38:06;;;;;;;13.15;7.45;;;17.70;93.30;;;;;;5030180;28;20484;-78
2021/07/08 04:40:33;;;;;;;14.98;7.40;;;17.70;93.40;;;;;;5046545;28;20030;-78
2021/07/08 04:42:59;;;;;;;14.02;8.75;;;17.70;93.40;;;;;;5030046;28;20033;-78
2021/07/08 04:45:25;;;;;;;16.35;7.68;;;17.70;93.50;;;;;;5046459;28;20057;-80
2021/07/08 04:47:51;;;;;;;15.90;8.15;;;17.70;93.50;;;;;;5046464;28;20491;-79
2021/07/08 04:50:20;;;;;;;14.27;7.38;;;17.80;93.50;;;;;;5031066;28;20033;-79
2021/07/08 04:52:47;;;;;;;15.93;7.67;;;17.80;93.50;;;;;;5029889;28;20043;-77
2021/07/08 04:55:14;;;;;;;13.82;8.10;;;17.70;93.50;;;;;;5046507;28;20036;-81
2021/07/08 04:57:40;;;;;;;16.60;8.32;;;17.70;93.60;;;;;;5029724;28;20088;-79
2021/07/08 05:00:09;;;;;;;15.27;7.75;;;17.70;93.60;;;;;;5046196;28;20205;-80
2021/07/08 05:02:39;;;;;;;13.05;8.48;;;17.70;93.60;;;;;;5030856;28;20502;-79
2021/07/08 05:05:07;;;;;;;14.02;8.43;;;17.70;93.60;;;;;;5029633;28;20041;-79
2021/07/08 05:07:34;;;;;;;18.25;9.38;;;17.80;93.60;;;;;;5030795;28;20026;-79
2021/07/08 05:10:00;;;;;;;13.40;7.30;;;17.80;93.60;;;;;;5030815;28;20442;-80
2021/07/08 05:12:25;;;;;;;13.05;8.45;;;17.80;93.60;;;;;;5029401;28;20087;-78
2021/07/08 05:14:51;;;;;;;16.63;8.23;;;17.80;93.60;;;;;;5029394;28;20037;-76
2021/07/08 05:17:18;;;;;;;15.73;8.48;;;17.80;93.70;;;;;;5045871;28;20129;-79
2021/07/08 05:19:44;;;;;;;18.83;9.65;;;17.90;93.70;;;;;;5028954;28;20042;-77
2021/07/08 05:22:10;;;;;;;13.32;7.90;;;17.90;93.70;;;;;;5045865;28;20036;-77
2021/07/08 05:24:37;;;;;;;13.85;8.80;;;17.90;93.70;;;;;;5028590;28;20029;-78
2021/07/08 05:27:03;;;;;;;16.42;9.32;;;18.00;93.70;;;;;;5030455;28;20025;-79
2021/07/08 05:29:30;;;;;;;14.55;8.30;;;18.00;93.70;;;;;;5029061;28;20116;-79
2021/07/08 05:31:56;;;;;;;15.60;8.38;;;18.00;93.70;;;;;;5030388;28;20029;-78
2021/07/08 05:34:22;;;;;;;13.95;7.50;;;18.00;93.80;;;;;;5030074;28;20056;-78
2021/07/08 05:36:47;;;;;;;15.40;9.25;;;18.10;93.80;;;;;;5030059;28;20034;-77
2021/07/08 05:39:13;;;;;;;15.43;8.52;;;18.10;93.80;;;;;;5030168;28;20025;-80
2021/07/08 05:41:39;;;;;;;15.48;7.88;;;18.10;93.80;;;;;;5028755;28;20025;-78
2021/07/08 05:44:06;;;;;;;12.95;6.75;;;18.10;93.80;;;;;;5045329;28;20032;-79
2021/07/08 05:46:31;;;;;;;12.27;6.82;;;18.20;93.80;;;;;;5028867;28;20029;-80
2021/07/08 05:48:57;;;;;;;13.52;6.88;;;18.20;93.90;;;;;;5028479;28;20047;-78
2021/07/08 05:51:23;;;;;;;13.80;5.70;;;18.20;93.90;;;;;;5028538;28;20025;-77
2021/07/08 05:53:49;;;;;;;19.00;5.65;;;18.30;93.90;;;;;;5028685;28;20439;-71
2021/07/08 05:56:14;;;;;;;19.23;5.97;;;18.30;93.80;;;;;;5045047;28;20026;-74
2021/07/08 05:58:40;;;;;;;10.98;6.38;;;18.40;93.70;;;;;;5028558;28;20044;-79
2021/07/08 06:01:06;;;;;;;9.60;6.00;;;18.30;93.70;;;;;;5028906;28;20021;-78
2021/07/08 06:03:31;;;;;;;9.38;5.15;;;18.30;93.80;;;;;;5044777;28;20455;-79
2021/07/08 06:05:57;;;;;;;18.38;6.78;;;18.20;93.90;;;;;;5028277;28;20471;-76
2021/07/08 06:08:22;;;;;;;14.27;6.70;;;18.20;94.10;;;;;;5027977;28;20051;-78
2021/07/08 06:10:48;;;;;;;13.00;7.22;;;18.20;94.30;;;;;;5028013;28;20083;-80
2021/07/08 06:13:14;;;;;;;16.20;8.45;;;18.20;94.40;;;;;;5028016;28;20079;-79
2021/07/08 06:15:40;;;;;;;11.88;6.97;;;18.20;94.50;;;;;;5028097;28;20021;-78
2021/07/08 06:18:06;;;;;;;12.57;6.70;;;18.20;94.50;;;;;;5044712;28;20036;-78
2021/07/08 06:20:33;;;;;;;12.30;6.53;;;18.20;94.60;;;;;;5029159;28;20045;-78
2021/07/08 06:22:59;;;;;;;11.57;6.70;;;18.20;94.70;;;;;;5029290;28;20044;-79
2021/07/08 06:25:29;;;;;;;13.75;6.28;;;18.10;94.90;;;;;;5027811;28;20033;-79
2021/07/08 06:27:54;;;;;;;9.77;5.72;;;18.20;95.00;;;;;;5044471;28;20030;-78
2021/07/08 06:30:20;;;;;;;11.23;5.68;;;18.30;95.20;;;;;;5028996;28;20064;-78
2021/07/08 06:32:46;;;;;;;9.63;6.40;;;18.30;95.20;;;;;;5028025;28;20033;-79
2021/07/08 06:35:16;;;;;;;10.65;6.00;;;18.40;95.60;;;;;;5027547;28;20140;-80
2021/07/08 06:37:41;;;;;;;;;;;18.40;95.50;;;;;;5028096;28;20032;-79
2021/07/08 06:40:08;;;;;;;8.82;5.57;;;18.50;95.40;;;;;;5029260;28;19909;-79
2021/07/08 06:42:34;;;;;;;12.82;6.47;;;18.60;95.20;;;;;;5027501;28;20036;-78
2021/07/08 06:45:00;;;;;;;10.50;6.32;;;18.60;95.30;;;;;;5027779;28;20030;-80
2021/07/08 06:47:32;;;;;;;7.45;4.90;;;18.70;95.30;;;;;;5027252;28;20028;-78
2021/07/08 06:49:57;;;;;;;8.48;4.88;;;18.80;95.30;;;;;;5029031;28;20025;-78
2021/07/08 06:52:23;;;;;;;13.82;5.00;;;18.90;95.20;;;;;;5027783;28;20431;-78
2021/07/08 06:54:48;;;;;;;7.07;4.43;;;18.80;95.20;;;;;;5028008;28;20068;-77
2021/07/08 06:57:14;;;;;;;8.77;4.82;;;18.80;95.20;;;;;;5027329;28;20503;-77
2021/07/08 06:59:40;;;;;;;6.45;4.00;;;18.80;95.20;;;;;;5044429;28;20047;-78
2021/07/08 07:02:06;;;;;;;6.75;3.55;;;18.60;95.20;;;;;;5028606;28;20437;-79
2021/07/08 07:04:32;;;;;;;4.35;2.80;;;18.40;95.50;;;;;;5027538;28;20021;-78
2021/07/08 07:06:57;;;;;;;5.30;2.58;;;18.30;95.80;;;;;;5027206;28;20054;-80
2021/07/08 07:09:23;;;;;;;4.50;2.17;;;18.30;95.80;;;;;;5027201;28;20030;-78
2021/07/08 07:11:49;;;;;;;4.40;2.38;;;18.30;95.80;;;;;;5027204;28;20455;-79
2021/07/08 07:14:14;;;;;;;3.55;1.90;;;18.30;95.80;;;;;;5027079;28;20527;-79
2021/07/08 07:16:40;;;;;;;5.03;2.13;;;18.40;95.70;;;;;;5043411;28;20400;-79
2021/07/08 07:19:06;;;;;;;4.95;2.50;;;18.40;95.60;;;;;;5043199;28;20059;-80
2021/07/08 07:21:31;;;;;;;6.25;2.28;;;18.50;95.80;;;;;;5026924;28;20492;-78
2021/07/08 07:23:58;;;;;;;4.65;2.92;;;18.80;95.90;;;;;;5026810;28;20029;-79
2021/07/08 07:26:25;;;;;;;4.80;3.00;;;19.00;95.80;;;;;;5026748;28;20057;-79
2021/07/08 07:28:51;;;;;;;5.47;3.33;;;19.40;95.90;;;;;;5026626;28;20492;-79
2021/07/08 07:31:17;;;;;;;7.63;3.97;;;19.80;95.50;;;;;;5026911;28;20377;-78
2021/07/08 07:33:42;;;;;;;8.60;4.38;;;20.00;95.10;;;;;;5028077;28;20552;-78
2021/07/08 07:36:10;;;;;;;7.57;3.90;;;20.10;94.60;;;;;;5026686;28;20434;-79
2021/07/08 07:38:39;;;;;;;7.38;4.45;;;20.10;94.50;;;;;;5042874;28;20454;-80
2021/07/08 07:41:06;;;;;;;8.20;5.68;;;20.20;94.50;;;;;;5026448;28;20040;-80
2021/07/08 07:43:32;;;;;;;9.77;5.15;;;20.20;94.00;;;;;;5042857;28;20129;-80
2021/07/08 07:45:58;;;;;;;8.75;5.35;;;20.20;93.80;;;;;;5026231;28;20075;-80
2021/07/08 07:48:24;;;;;;;7.63;5.68;;;20.10;93.40;;;;;;5027083;28;20022;-79
2021/07/08 07:50:49;;;;;;;9.93;5.32;;;19.90;93.40;;;;;;5026304;28;20025;-79
2021/07/08 07:53:15;;;;;;;7.75;5.28;;;19.80;93.50;;;;;;5026187;28;20029;-80
2021/07/08 07:55:41;;;;;;;11.60;6.15;;;19.60;93.60;;;;;;5027569;28;20040;-79
2021/07/08 07:58:07;;;;;;;9.18;5.43;;;19.50;93.70;;;;;;5027405;28;20034;-78
2021/07/08 08:00:34;;;;;;;10.70;5.35;;;19.40;93.70;;;;;;5042791;28;20087;-78
2021/07/08 08:02:59;;;;;;;9.23;5.53;;;19.40;93.80;;;;;;5043073;28;20032;-78
2021/07/08 08:10:39;;;;;;;7.50;5.20;;;19.30;93.90;;;;;;5027550;28;20099;-80
2021/07/08 08:13:05;;;;;;;8.07;4.28;;;19.30;94.00;;;;;;5025992;28;20029;-79
2021/07/08 08:15:31;;;;;;;6.88;4.32;;;19.30;94.00;;;;;;5042497;28;20101;-79
2021/07/08 08:18:01;;;;;;;7.28;3.78;;;19.40;93.90;;;;;;5025956;28;20404;-78
2021/07/08 08:20:27;;;;;;;6.45;3.92;;;19.40;93.90;;;;;;5026323;28;20052;-79
2021/07/08 08:22:52;;;;;;;5.30;3.85;;;19.40;93.80;;;;;;5026987;28;20136;-79
2021/07/08 08:25:18;;;;;;;6.18;4.18;;;19.50;93.80;;;;;;5042496;28;20549;-78
2021/07/08 08:27:44;;;;;;;5.35;3.70;;;19.70;93.90;;;;;;5026976;28;20052;-77
2021/07/08 08:30:13;;;;;;;7.40;4.35;;;19.80;93.80;;;;;;5042239;28;20380;-78
2021/07/08 08:32:42;;;;;;;5.18;3.47;;;20.10;93.90;;;;;;5026734;28;20049;-80
2021/07/08 08:35:10;;;;;;;6.03;3.55;;;20.30;93.80;;;;;;5026496;28;20112;-78
2021/07/08 08:37:36;;;;;;;5.05;3.60;;;20.60;93.50;;;;;;5026757;28;20025;-79
2021/07/08 08:40:04;;;;;;;5.18;3.63;;;20.90;93.30;;;;;;5025719;28;20404;-80
2021/07/08 08:42:30;;;;;;;9.20;3.63;;;21.20;92.60;;;;;;5025660;28;20044;-77
2021/07/08 08:44:56;;;;;;;5.30;3.72;;;21.50;92.30;;;;;;5025586;28;20101;-78
2021/07/08 08:47:23;;;;;;;6.05;3.20;;;21.80;92.10;;;;;;5041844;28;20527;-77
2021/07/08 08:49:53;;;;;;;4.85;3.00;;;22.10;91.80;;;;;;5041613;28;20387;-78
2021/07/08 08:52:20;;;;;;;4.68;3.22;;;22.40;91.30;;;;;;5025645;28;20108;-78
2021/07/08 08:54:47;;;;;;;4.53;2.92;;;22.70;90.80;;;;;;5025308;28;20038;-80
2021/07/08 08:57:12;;;;;;;6.47;3.28;;;22.90;90.00;;;;;;5025510;28;20096;-80
2021/07/08 08:59:38;;;;;;;4.22;2.83;;;23.00;89.10;;;;;;5027335;28;20060;-80
2021/07/08 09:02:18;;;;;;;3.75;2.55;;;23.30;88.40;;;;;;5029007;28;20511;-78
2021/07/08 09:04:46;;;;;;;4.13;3.15;;;23.50;86.70;;;;;;5030230;28;20376;-78
2021/07/08 09:07:26;;;;;;;4.80;3.17;;;24.00;86.50;;;;;;5028845;28;20079;-79
2021/07/08 09:09:57;;;;;;;5.15;3.22;;;24.40;84.50;;;;;;5045385;28;20108;-78
2021/07/08 09:12:24;;;;;;;6.53;3.50;;;24.70;82.80;;;;;;5031037;28;20025;-77
2021/07/08 09:15:17;;;;;;;4.93;3.45;;;24.70;81.20;;;;;;5046940;28;20705;-79
2021/07/08 09:17:44;;;;;;;5.03;3.67;;;24.50;80.00;;;;;;5031714;28;20029;-79
2021/07/08 09:20:19;;;;;;;5.90;3.78;;;24.20;79.80;;;;;;5027915;28;20061;-79
2021/07/08 09:22:46;;;;;;;5.50;3.00;;;23.80;80.10;;;;;;5027437;28;20033;-78
2021/07/08 09:25:21;;;;;;;9.00;3.30;;;23.50;79.70;;;;;;5029292;28;20488;-78
2021/07/08 09:27:50;;;;;;;8.13;3.30;;;23.20;80.00;;;;;;5028280;28;20024;-79
2021/07/08 09:30:29;;;;;;;8.60;4.05;;;22.90;80.10;;;;;;5030866;28;20120;-78
2021/07/08 09:32:55;;;;;;;6.82;3.22;;;22.60;80.90;;;;;;5044892;28;20040;-77
2021/07/08 09:35:35;;;;;;;8.93;2.83;;;22.40;81.40;;;;;;5028367;28;20056;-78
2021/07/08 09:38:08;;;;;;;6.50;2.78;;;22.30;81.40;;;;;;5028702;28;20542;-78
2021/07/08 09:40:34;;;;;;;5.93;3.17;;;22.20;81.00;;;;;;5044951;28;20468;-78
2021/07/08 09:43:00;;;;;;;6.13;2.97;;;22.20;81.10;;;;;;5026720;28;20066;-78
2021/07/08 09:45:26;;;;;;;10.32;2.88;;;22.00;81.40;;;;;;5029543;28;20049;-78
2021/07/08 09:47:51;;;;;;;4.72;3.17;;;22.00;81.60;;;;;;5044806;28;20025;-78
2021/07/08 09:50:29;;;;;;;6.30;3.05;;;22.00;81.90;;;;;;5045581;28;20191;-78
2021/07/08 09:53:06;;;;;;;5.90;2.60;;;21.90;81.90;;;;;;5045409;28;20030;-79
2021/07/08 09:56:03;;;;;;;14.43;3.75;;;21.90;82.20;;;;;;5028127;28;20135;-78
2021/07/08 09:58:30;;;;;;;8.00;2.95;;;21.90;82.50;;;;;;5029573;28;20743;-79
2021/07/08 10:00:56;;;;;;;12.75;3.42;;;22.00;82.50;;;;;;5045631;28;20212;-79
2021/07/08 10:03:21;;;;;;;5.75;3.08;;;22.20;82.40;;;;;;5045770;28;20022;-79
2021/07/08 10:05:47;;;;;;;5.03;2.35;;;22.30;81.90;;;;;;5028845;28;20040;-80
2021/07/08 10:08:13;;;;;;;5.20;2.30;;;22.40;81.30;;;;;;5030148;28;20534;-77
2021/07/08 10:10:41;;;;;;;4.22;2.55;;;22.40;80.80;;;;;;5029391;28;20052;-78
2021/07/08 10:13:08;;;;;;;3.85;2.20;;;22.50;80.70;;;;;;5028766;28;20037;-78
2021/07/08 10:15:38;;;;;;;4.03;2.50;;;22.50;80.40;;;;;;5026583;28;20032;-78
2021/07/08 10:18:06;;;;;;;10.55;2.60;;;22.50;80.10;;;;;;5045708;28;20025;-77
2021/07/08 10:20:32;;;;;;;3.70;2.30;;;22.50;80.10;;;;;;5029954;28;20072;-79
2021/07/08 10:22:59;;;;;;;6.70;2.15;;;22.50;80.00;;;;;;5029500;28;20118;-77
2021/07/08 10:25:25;;;;;;;6.07;2.70;;;22.50;79.70;;;;;;5030040;28;20100;-78
2021/07/08 10:27:51;;;;;;;7.32;2.10;;;22.60;79.50;;;;;;5045352;28;20078;-78
2021/07/08 10:30:22;;;;;;;3.72;1.83;;;22.70;79.20;;;;;;5028748;28;20028;-80
2021/07/08 10:32:57;;;;;;;5.03;2.00;;;22.70;78.50;;;;;;5030121;28;20029;-78
2021/07/08 10:35:42;;;;;;;4.38;1.83;;;22.70;77.80;;;;;;5044851;28;20027;-79
2021/07/08 10:38:26;;;;;;;6.28;1.92;;;22.70;77.40;;;;;;5044361;28;20064;-79
2021/07/08 10:40:53;;;;;;;4.35;2.10;;;22.60;77.30;;;;;;5045094;28;20029;-79
2021/07/08 10:43:31;;;;;;;5.55;1.70;;;22.60;77.50;;;;;;5030092;28;20464;-78
2021/07/08 10:46:02;;;;;;;4.20;2.15;;;22.70;77.30;;;;;;5024623;28;20033;-79
2021/07/08 10:48:47;;;;;;;3.05;1.85;;;22.70;76.60;;;;;;5030032;28;20022;-78
2021/07/08 10:51:21;;;;;;;3.20;2.00;;;22.80;76.30;;;;;;5030563;28;20017;-79
2021/07/08 10:53:50;;;;;;;7.55;1.65;;;22.80;76.30;;;;;;5045571;28;20025;-79
2021/07/08 10:56:32;;;;;;;4.25;1.65;;;22.90;75.90;;;;;;5027657;28;20475;-79
2021/07/08 10:58:58;;;;;;;5.28;1.92;;;23.00;75.50;;;;;;5029590;28;20038;-81
2021/07/08 11:01:25;;;;;;;3.70;1.55;;;23.10;75.20;;;;;;5028669;28;20088;-78
2021/07/08 11:03:54;;;;;;;4.55;2.15;;;23.20;75.00;;;;;;5045216;28;20108;-79
2021/07/08 11:06:31;;;;;;;2.53;1.77;;;23.30;74.10;;;;;;5029630;28;20022;-78
2021/07/08 11:09:03;;;;;;;6.22;3.63;;;23.40;73.60;;;;;;5044591;28;20112;-79
2021/07/08 11:11:29;;;;;;;4.45;2.72;;;23.50;73.50;;;;;;5009227;28;20778;-79
2021/07/08 11:14:24;;;;;;;4.85;2.60;;;23.60;73.50;;;;;;5009883;28;20026;-81
2021/07/08 11:16:53;;;;;;;3.70;1.85;;;23.60;73.10;;;;;;5002192;28;20060;-78
2021/07/08 11:19:23;;;;;;;2.83;1.98;;;23.60;73.10;;;;;;5024171;28;20029;-77
2021/07/08 11:21:56;;;;;;;3.90;1.63;;;23.60;72.80;;;;;;5024449;28;20507;-78
2021/07/08 11:24:23;;;;;;;2.90;1.88;;;23.60;72.30;;;;;;5035408;28;20028;-77
2021/07/08 11:27:03;;;;;;;13.20;2.47;;;23.60;72.00;;;;;;5043989;28;20101;-79
2021/07/08 11:29:58;;;;;;;3.15;1.90;;;23.50;71.60;;;;;;5042526;28;20514;-78
2021/07/08 11:32:31;;;;;;;4.93;2.08;;;23.50;71.50;;;;;;5029035;28;20099;-78
2021/07/08 11:35:33;;;;;;;4.78;2.10;;;23.50;71.40;;;;;;5044960;28;20116;-78
2021/07/08 11:38:25;;;;;;;3.53;1.48;;;23.60;71.30;;;;;;5018730;28;20039;-77
2021/07/08 11:40:53;;;;;;;4.38;1.70;;;23.70;71.00;;;;;;5040129;28;20037;-77
2021/07/08 11:43:24;;;;;;;8.43;2.13;;;23.80;70.50;;;;;;5029614;28;20383;-79
2021/07/08 11:45:52;;;;;;;5.93;1.83;;;23.70;70.00;;;;;;5029339;28;20137;-78
2021/07/08 11:48:30;;;;;;;6.47;2.40;;;23.70;69.70;;;;;;5044700;28;20033;-78
2021/07/08 11:50:56;;;;;;;3.72;2.28;;;23.70;69.50;;;;;;5029390;28;20061;-78
2021/07/08 11:53:22;;;;;;;7.07;3.17;;;23.80;69.40;;;;;;5044002;28;20476;-73
2021/07/08 11:55:48;;;;;;;4.15;2.95;;;23.80;69.10;;;;;;5027757;28;20038;-76
2021/07/08 11:58:22;;;;;;;3.22;2.40;;;23.80;69.10;;;;;;5044838;28;20029;-77
2021/07/08 12:00:49;;;;;;;6.60;2.72;;;23.80;69.00;;;;;;5044935;28;20507;-77
2021/07/08 12:03:31;;;;;;;6.38;2.70;;;23.90;68.80;;;;;;5028238;28;20061;-77
2021/07/08 12:06:05;;;;;;;6.03;3.10;;;24.00;68.80;;;;;;5044423;28;20495;-76
2021/07/08 12:08:46;;;;;;;5.13;3.50;;;24.20;68.80;;;;;;5029804;28;20029;-79
2021/07/08 12:11:16;;;;;;;3.33;2.25;;;24.40;68.80;;;;;;5029422;28;20101;-77
2021/07/08 12:13:49;;;;;;;5.00;2.78;;;24.80;68.30;;;;;;5028825;28;20429;-77
2021/07/08 12:16:16;;;;;;;3.67;2.38;;;25.00;67.50;;;;;;5036454;28;20113;-77
2021/07/08 12:18:49;;;;;;;5.70;3.08;;;25.20;67.00;;;;;;5043787;28;20029;-78
2021/07/08 12:21:24;;;;;;;2.80;2.15;;;25.40;66.40;;;;;;5028799;28;20065;-78
2021/07/08 12:23:52;;;;;;;5.47;2.20;;;25.50;65.70;;;;;;5028797;28;20061;-74
2021/07/08 12:26:22;;;;;;;3.97;2.30;;;25.40;65.00;;;;;;5029109;28;20413;-77
2021/07/08 12:28:47;;;;;;;3.80;2.35;;;25.30;64.90;;;;;;5043283;28;20480;-78
2021/07/08 12:31:13;;;;;;;3.15;2.10;;;25.10;64.90;;;;;;5010164;28;20075;-78
2021/07/08 12:34:02;;;;;;;4.22;2.30;;;24.90;64.80;;;;;;5027837;28;20144;-77
2021/07/08 12:36:28;;;;;;;9.98;3.38;;;24.60;64.90;;;;;;5032438;28;20017;-77
2021/07/08 12:38:54;;;;;;;7.53;2.65;;;24.40;64.80;;;;;;5047877;28;20075;-78
2021/07/08 12:41:20;;;;;;;4.75;2.83;;;24.10;64.80;;;;;;5028423;28;20030;-78
2021/07/08 12:43:45;;;;;;;7.13;2.03;;;23.90;65.40;;;;;;5048082;28;20033;-78
2021/07/08 12:46:11;;;;;;;6.38;2.38;;;23.70;65.60;;;;;;5032743;28;20030;-78
2021/07/08 12:48:37;;;;;;;5.85;2.75;;;23.50;66.10;;;;;;5031205;28;20040;-78
2021/07/08 12:51:03;;;;;;;3.10;2.00;;;23.40;66.50;;;;;;5031269;28;20052;-76
2021/07/08 12:53:29;;;;;;;4.68;1.98;;;23.20;66.90;;;;;;5031444;28;20108;-79